Bancroft, Iowa
Current Conditions -  °F | °C
As of 9:55 PM on Tuesday 27 Jan 2015 (Local Time) from KAXA Reporting Station
Overcast Overcast  
Wind Chill: 22°   Ceiling: 700
Heat Index: 32°   Visibility: 7mi
Dew Point: 32°   Wind: 15mph
Humidity: 100%   Direction: 150°SSE
Pressure: 30.09"   Gusts: NA
Location:  43.29°N, 94.22°W
Report Text: KAXA 280355Z AUTO 15013KT 7SM OVC007 00/M00 A3009 RMK AO2
Loading
Personal Weather Stations






























Interactive Weather Map New forecast layout! Learn more

10-Day Weather Forecast

Advertisements
Track Severe Weather on mobile